Time;durP1;ratioP1;P1;durP2;ratioP2;P2;SDS_P1;SDS_P2;PMS_P1;PMS_P2;Temp;Humidity;BMP_temperature;BMP_pressure;BME280_temperature;BME280_humidity;BME280_pressure;Samples;Min_cycle;Max_cycle;Signal;HPM_P1;HPM_P2
2022/07/08 00:00:14;;;;;;;5.43;1.48;;;15.30;99.90;;;;;;5096169;28;20123;-78
2022/07/08 00:02:40;;;;;;;5.22;1.48;;;15.20;99.90;;;;;;5079697;28;20499;-78
2022/07/08 00:05:06;;;;;;;8.32;1.60;;;15.20;99.90;;;;;;5079298;28;20035;-78
2022/07/08 00:07:32;;;;;;;6.47;1.65;;;15.20;99.90;;;;;;5063383;28;20071;-78
2022/07/08 00:09:58;;;;;;;7.00;1.80;;;15.20;99.90;;;;;;5079605;28;20090;-78
2022/07/08 00:12:24;;;;;;;6.90;1.52;;;15.20;99.90;;;;;;5079172;28;20438;-78
2022/07/08 00:14:49;;;;;;;6.40;1.83;;;15.00;99.90;;;;;;5062351;28;20046;-78
2022/07/08 00:17:15;;;;;;;8.00;2.25;;;15.00;99.90;;;;;;5096483;28;20134;-78
2022/07/08 00:19:41;;;;;;;6.50;1.75;;;15.00;99.90;;;;;;5063128;28;20134;-79
2022/07/08 00:22:06;;;;;;;7.97;1.67;;;15.00;99.90;;;;;;5080363;28;20385;-78
2022/07/08 00:24:32;;;;;;;6.53;1.45;;;15.00;99.90;;;;;;5063245;28;20420;-78
2022/07/08 00:26:58;;;;;;;7.65;1.92;;;15.00;99.90;;;;;;5080034;28;20403;-78
2022/07/08 00:32:03;;;;;;;6.13;1.50;;;14.90;99.90;;;;;;5973159;22;20039;31
2022/07/08 00:34:33;;;;;;;5.13;1.50;;;14.90;99.90;;;;;;5211054;22;20067;31
2022/07/08 00:37:28;;;;;;;5.43;2.05;;;14.90;99.90;;;;;;5285943;23;20791;31
2022/07/08 00:39:54;;;;;;;4.57;1.80;;;14.90;99.90;;;;;;5254036;23;20049;-77
2022/07/08 00:42:20;;;;;;;5.22;1.33;;;14.80;99.90;;;;;;4879390;29;20045;-77
2022/07/08 00:44:45;;;;;;;4.38;1.50;;;14.80;99.90;;;;;;4879482;29;20487;-77
2022/07/08 00:47:11;;;;;;;5.68;1.25;;;14.80;99.90;;;;;;4879832;29;20108;-77
2022/07/08 00:49:37;;;;;;;8.10;1.65;;;14.80;99.90;;;;;;4848082;29;20132;-77
2022/07/08 00:52:04;;;;;;;7.85;1.67;;;14.80;99.90;;;;;;4863560;29;20126;-77
2022/07/08 00:54:30;;;;;;;4.50;1.65;;;14.80;99.90;;;;;;4863743;29;20041;-77
2022/07/08 00:56:56;;;;;;;7.10;1.95;;;14.80;99.90;;;;;;4866463;29;20382;-77
2022/07/08 00:59:23;;;;;;;7.88;1.63;;;14.80;99.90;;;;;;4867182;29;20052;-77
2022/07/08 01:01:49;;;;;;;7.57;2.03;;;14.80;99.90;;;;;;4867639;29;20076;-77
2022/07/08 01:04:15;;;;;;;5.57;1.67;;;14.80;99.90;;;;;;4866730;29;20040;-77
2022/07/08 01:06:41;;;;;;;4.90;1.60;;;14.80;99.90;;;;;;4851157;29;20049;-77
2022/07/08 01:09:07;;;;;;;7.75;1.40;;;14.80;99.90;;;;;;4881948;29;20425;-77
2022/07/08 01:11:33;;;;;;;7.03;1.38;;;14.80;99.90;;;;;;4851308;29;20079;-77
2022/07/08 01:13:59;;;;;;;6.00;1.63;;;14.80;99.90;;;;;;4866762;29;20088;-77
2022/07/08 01:16:24;;;;;;;7.05;1.40;;;14.80;99.90;;;;;;4851038;29;20051;-77
2022/07/08 01:18:50;;;;;;;8.02;1.73;;;14.80;99.90;;;;;;4866281;29;20045;-77
2022/07/08 01:21:16;;;;;;;10.38;1.67;;;14.80;99.90;;;;;;4850677;29;20052;-77
2022/07/08 01:23:42;;;;;;;7.45;1.58;;;14.90;99.90;;;;;;4850761;29;20048;-77
2022/07/08 01:26:10;;;;;;;9.27;1.90;;;14.80;99.90;;;;;;4850787;29;20041;-77
2022/07/08 01:28:38;;;;;;;7.35;1.75;;;14.80;99.90;;;;;;4865907;29;20490;-77
2022/07/08 01:31:04;;;;;;;5.15;1.55;;;14.80;99.90;;;;;;4881988;29;20116;-77
2022/07/08 01:33:30;;;;;;;3.97;1.42;;;14.70;99.90;;;;;;4866131;29;20434;-77
2022/07/08 01:35:55;;;;;;;5.60;1.40;;;14.80;99.90;;;;;;4866259;29;20045;-77
2022/07/08 01:38:21;;;;;;;4.22;1.20;;;14.80;99.90;;;;;;4866107;29;20516;-77
2022/07/08 01:40:47;;;;;;;7.13;1.60;;;14.70;99.90;;;;;;4850608;29;20417;-77
2022/07/08 01:43:12;;;;;;;7.95;1.60;;;14.70;99.90;;;;;;4850361;29;20053;-77
2022/07/08 01:45:38;;;;;;;6.15;1.67;;;14.70;99.90;;;;;;4881401;29;20044;-77
2022/07/08 01:48:04;;;;;;;6.97;1.45;;;14.70;99.90;;;;;;4850823;29;20041;-77
2022/07/08 01:50:30;;;;;;;3.95;1.60;;;14.70;99.90;;;;;;4865985;29;20045;-77
2022/07/08 01:52:56;;;;;;;4.38;1.42;;;14.70;99.90;;;;;;4850245;29;20100;-77
2022/07/08 01:55:23;;;;;;;9.00;1.95;;;14.70;99.90;;;;;;4880788;29;20049;-77
2022/07/08 01:57:49;;;;;;;7.78;2.17;;;14.60;99.90;;;;;;4850576;29;20049;-77
2022/07/08 02:00:15;;;;;;;5.35;1.98;;;14.60;99.90;;;;;;4865812;29;20227;-77
2022/07/08 02:02:40;;;;;;;7.88;1.98;;;14.60;99.90;;;;;;4865291;29;20040;-77
2022/07/08 02:05:08;;;;;;;6.80;1.45;;;14.60;99.90;;;;;;4835477;29;20037;-77
2022/07/08 02:07:34;;;;;;;6.90;1.92;;;14.50;99.90;;;;;;4850037;29;20045;-77
2022/07/08 02:10:00;;;;;;;7.20;2.05;;;14.50;99.90;;;;;;4880939;29;20104;-77
2022/07/08 02:12:25;;;;;;;4.10;1.30;;;14.40;99.90;;;;;;4850044;29;20045;-77
2022/07/08 02:14:55;;;;;;;5.50;1.40;;;14.40;99.90;;;;;;4865344;29;20048;-77
2022/07/08 02:17:22;;;;;;;5.55;1.40;;;14.40;99.90;;;;;;4880896;29;20093;-77
2022/07/08 02:19:49;;;;;;;8.82;2.00;;;14.30;99.90;;;;;;4880518;29;20184;-77
2022/07/08 02:22:15;;;;;;;7.28;1.75;;;14.30;99.90;;;;;;4865014;29;20052;-77
2022/07/08 02:24:41;;;;;;;4.63;1.48;;;14.30;99.90;;;;;;4880519;29;20132;-77
2022/07/08 02:27:07;;;;;;;8.23;2.40;;;14.20;99.90;;;;;;4849390;29;20041;-77
2022/07/08 02:29:33;;;;;;;5.53;1.50;;;14.20;99.90;;;;;;4834386;29;20044;-77
2022/07/08 02:31:59;;;;;;;7.03;1.58;;;14.20;99.90;;;;;;4864916;29;20105;-77
2022/07/08 02:34:25;;;;;;;11.23;1.42;;;14.20;99.90;;;;;;4880279;29;20489;-77
2022/07/08 02:36:51;;;;;;;5.47;1.88;;;14.10;99.90;;;;;;4849326;29;20056;-77
2022/07/08 02:39:16;;;;;;;6.03;2.15;;;14.10;99.90;;;;;;4848912;29;20388;-78
2022/07/08 02:41:43;;;;;;;6.20;1.73;;;14.10;99.90;;;;;;4849204;29;20131;-78
2022/07/08 02:44:09;;;;;;;7.03;1.30;;;14.10;99.90;;;;;;4864579;29;20056;-77
2022/07/08 02:46:35;;;;;;;7.25;1.73;;;14.00;99.90;;;;;;4864830;29;20397;-77
2022/07/08 02:49:01;;;;;;;7.75;1.77;;;14.00;99.90;;;;;;4864482;29;20051;-77
2022/07/08 02:51:27;;;;;;;9.00;1.73;;;14.00;99.90;;;;;;4849402;29;20051;-77
2022/07/08 02:53:53;;;;;;;7.07;1.80;;;13.90;99.90;;;;;;4849170;29;20131;-77
2022/07/08 02:56:19;;;;;;;6.85;1.40;;;13.90;99.90;;;;;;4864643;29;20088;-77
2022/07/08 02:58:44;;;;;;;7.28;1.98;;;13.90;99.90;;;;;;4863840;29;20124;-78
2022/07/08 03:01:10;;;;;;;7.47;1.65;;;13.90;99.90;;;;;;4864609;29;20056;-78
2022/07/08 03:03:36;;;;;;;16.48;1.60;;;13.90;99.90;;;;;;4865301;29;20044;-78
2022/07/08 03:06:02;;;;;;;6.60;1.80;;;13.90;99.90;;;;;;4881010;29;20083;-78
2022/07/08 03:08:28;;;;;;;9.00;1.50;;;13.90;99.90;;;;;;4864804;29;20069;-78
2022/07/08 03:10:54;;;;;;;4.30;1.45;;;13.80;99.90;;;;;;4865053;29;20131;-78
2022/07/08 03:13:19;;;;;;;5.55;1.73;;;13.80;99.90;;;;;;4880055;29;20048;-78
2022/07/08 03:15:45;;;;;;;10.77;1.83;;;13.80;99.90;;;;;;4849479;29;20049;-78
2022/07/08 03:18:11;;;;;;;5.10;1.80;;;13.80;99.90;;;;;;4848435;29;20045;-78
2022/07/08 03:20:36;;;;;;;6.47;1.83;;;13.80;99.90;;;;;;4865815;29;20057;-79
2022/07/08 03:23:02;;;;;;;5.70;1.50;;;13.70;99.90;;;;;;4850745;29;20092;-78
2022/07/08 03:25:29;;;;;;;6.55;2.15;;;13.70;99.90;;;;;;4880969;29;20398;-78
2022/07/08 03:27:55;;;;;;;3.53;1.30;;;13.70;99.90;;;;;;4881425;29;20045;-78
2022/07/08 03:30:22;;;;;;;5.65;1.40;;;13.70;99.90;;;;;;4880767;29;20493;-78
2022/07/08 03:32:47;;;;;;;7.57;1.73;;;13.70;99.90;;;;;;4865267;29;20093;-78
2022/07/08 03:35:13;;;;;;;6.78;2.22;;;13.60;99.90;;;;;;4849079;29;20041;-78
2022/07/08 03:37:45;;;;;;;7.22;1.70;;;13.60;99.90;;;;;;4864895;29;20049;-78
2022/07/08 03:42:56;;;;;;;5.85;1.80;;;13.60;99.90;;;;;;4880807;29;20055;-78
2022/07/08 03:45:22;;;;;;;5.72;2.22;;;13.60;99.90;;;;;;4864100;29;20096;-78
2022/07/08 03:47:48;;;;;;;6.35;1.40;;;13.60;99.90;;;;;;4879034;29;20045;-78
2022/07/08 03:50:14;;;;;;;3.50;1.20;;;13.60;99.90;;;;;;4863481;29;20045;-78
2022/07/08 03:52:40;;;;;;;5.95;1.80;;;13.60;99.90;;;;;;4880764;29;20041;-78
2022/07/08 03:55:07;;;;;;;5.00;1.70;;;13.60;99.90;;;;;;4865215;29;20041;-78
2022/07/08 03:57:33;;;;;;;6.90;1.40;;;13.50;99.90;;;;;;4880163;29;20049;-78
2022/07/08 03:59:58;;;;;;;9.88;1.70;;;13.50;99.90;;;;;;4880609;29;20062;-78
2022/07/08 04:02:24;;;;;;;7.25;2.10;;;13.50;99.90;;;;;;4880312;29;20039;-78
2022/07/08 04:04:50;;;;;;;6.10;1.83;;;13.50;99.90;;;;;;4865376;29;20084;-78
2022/07/08 04:07:16;;;;;;;7.43;1.60;;;13.50;99.90;;;;;;4864619;29;20045;-78
2022/07/08 04:09:42;;;;;;;7.43;1.77;;;13.60;99.90;;;;;;4863867;29;20049;-78
2022/07/08 04:12:08;;;;;;;6.53;1.80;;;13.60;99.90;;;;;;4864111;29;20059;-78
2022/07/08 04:14:34;;;;;;;7.55;1.92;;;13.60;99.90;;;;;;4849194;29;20041;-78
2022/07/08 04:17:00;;;;;;;5.90;1.65;;;13.60;99.90;;;;;;4880013;29;20072;-78
2022/07/08 04:19:26;;;;;;;5.85;1.83;;;13.60;99.90;;;;;;4879608;29;20053;-78
2022/07/08 04:21:51;;;;;;;5.05;1.50;;;13.70;99.90;;;;;;4863604;29;20105;-78
2022/07/08 04:24:17;;;;;;;5.28;1.67;;;13.70;99.90;;;;;;4864124;29;20102;-78
2022/07/08 04:26:43;;;;;;;7.03;2.90;;;13.70;99.90;;;;;;4848373;29;20040;-78
2022/07/08 04:29:09;;;;;;;9.02;1.75;;;13.70;99.90;;;;;;4832898;29;20057;-78
2022/07/08 04:31:34;;;;;;;6.90;1.67;;;13.70;99.90;;;;;;4863382;29;20132;-78
2022/07/08 04:34:00;;;;;;;8.23;1.85;;;13.70;99.90;;;;;;4832946;29;20495;-78
2022/07/08 04:36:25;;;;;;;7.57;1.60;;;13.80;99.90;;;;;;4878476;29;20454;-78
2022/07/08 04:38:51;;;;;;;4.88;1.45;;;13.80;99.90;;;;;;4863237;29;20056;-79
2022/07/08 04:41:18;;;;;;;7.80;1.73;;;13.80;99.90;;;;;;4848153;29;20081;-78
2022/07/08 04:43:44;;;;;;;6.07;2.00;;;13.80;99.90;;;;;;4863946;29;20104;-78
2022/07/08 04:46:11;;;;;;;8.80;1.83;;;13.90;99.90;;;;;;4863808;29;20041;-78
2022/07/08 04:48:37;;;;;;;7.55;1.55;;;14.00;99.90;;;;;;4879730;29;20438;-78
2022/07/08 04:51:03;;;;;;;8.25;1.55;;;14.00;99.90;;;;;;4864063;29;20081;-78
2022/07/08 04:53:28;;;;;;;7.95;1.50;;;14.00;99.90;;;;;;4863359;29;20049;-78
2022/07/08 04:55:54;;;;;;;8.88;2.10;;;14.10;99.90;;;;;;4864114;29;20100;-78
2022/07/08 04:58:20;;;;;;;6.10;1.88;;;14.10;99.90;;;;;;4863486;29;20049;-78
2022/07/08 05:00:45;;;;;;;6.57;1.73;;;14.10;99.90;;;;;;4849324;29;20041;-78
2022/07/08 05:03:11;;;;;;;9.35;2.03;;;14.20;99.90;;;;;;4863955;29;20099;-77
2022/07/08 05:05:37;;;;;;;12.50;2.20;;;14.20;99.90;;;;;;4864061;29;20102;-77
2022/07/08 05:08:03;;;;;;;6.60;1.80;;;14.30;99.90;;;;;;4878753;29;20041;-77
2022/07/08 05:10:29;;;;;;;9.50;2.25;;;14.40;99.90;;;;;;4863174;29;20052;-77
2022/07/08 05:12:56;;;;;;;9.18;1.95;;;14.40;99.90;;;;;;4863696;29;20029;-78
2022/07/08 05:15:23;;;;;;;4.88;1.80;;;14.50;99.90;;;;;;4833017;29;20092;-77
2022/07/08 05:17:49;;;;;;;6.82;1.95;;;14.50;99.90;;;;;;4863605;29;20568;-78
2022/07/08 05:20:16;;;;;;;7.13;2.38;;;14.60;99.90;;;;;;4863944;29;20049;-77
2022/07/08 05:22:41;;;;;;;6.43;2.10;;;14.70;99.90;;;;;;4878955;29;20041;-78
2022/07/08 05:25:08;;;;;;;8.48;2.30;;;14.70;99.90;;;;;;4848454;29;20057;-77
2022/07/08 05:27:35;;;;;;;12.23;2.35;;;14.80;99.90;;;;;;4847435;29;20366;-78
2022/07/08 05:30:02;;;;;;;7.22;2.22;;;14.80;99.90;;;;;;4847628;29;20041;-78
2022/07/08 05:32:27;;;;;;;12.23;1.90;;;14.90;99.90;;;;;;4879509;29;20155;-78
2022/07/08 05:34:53;;;;;;;8.52;1.77;;;15.00;99.90;;;;;;4833706;29;20079;-77
2022/07/08 05:37:19;;;;;;;4.82;1.60;;;15.00;99.90;;;;;;4863723;29;20052;-78
2022/07/08 05:39:45;;;;;;;5.70;1.88;;;15.00;99.90;;;;;;4863176;29;20048;-78
2022/07/08 05:42:11;;;;;;;6.00;1.85;;;15.00;99.90;;;;;;4865152;29;20056;-78
2022/07/08 05:44:38;;;;;;;7.80;2.13;;;15.10;99.90;;;;;;4850552;29;20048;-78
2022/07/08 05:47:04;;;;;;;5.97;1.83;;;15.20;99.90;;;;;;4852734;29;20052;-78
2022/07/08 05:49:30;;;;;;;8.63;1.83;;;15.20;99.90;;;;;;4867582;29;20049;-77
2022/07/08 05:51:56;;;;;;;7.88;1.85;;;15.30;99.90;;;;;;4852352;29;20049;-78
2022/07/08 05:54:22;;;;;;;8.98;2.30;;;15.30;99.90;;;;;;4867430;29;20059;-78
2022/07/08 05:56:48;;;;;;;8.90;1.98;;;15.40;99.90;;;;;;4866786;29;20049;-78
2022/07/08 05:59:14;;;;;;;11.30;1.80;;;15.50;99.90;;;;;;4851460;29;20041;-78
2022/07/08 06:01:40;;;;;;;7.25;2.08;;;15.50;99.90;;;;;;4866834;29;20433;-77
2022/07/08 06:04:06;;;;;;;8.43;1.90;;;15.60;99.90;;;;;;4851588;29;20066;-78
2022/07/08 06:06:32;;;;;;;6.65;1.80;;;15.60;99.90;;;;;;4867074;29;20505;-77
2022/07/08 06:08:57;;;;;;;7.60;1.67;;;15.60;99.90;;;;;;4851390;29;20056;-78
2022/07/08 06:11:23;;;;;;;8.20;1.60;;;15.70;99.90;;;;;;4835859;29;20128;-77
2022/07/08 06:13:49;;;;;;;9.60;2.00;;;15.80;99.90;;;;;;4851584;29;20056;-77
2022/07/08 06:16:15;;;;;;;4.40;1.75;;;15.80;99.90;;;;;;4881986;29;20056;-78
2022/07/08 06:18:41;;;;;;;7.80;1.90;;;16.00;99.90;;;;;;4881746;29;20096;-78
2022/07/08 06:21:07;;;;;;;6.80;1.58;;;16.00;99.90;;;;;;4881165;29;20045;-78
2022/07/08 06:23:35;;;;;;;8.73;1.95;;;16.20;99.90;;;;;;4865955;29;20052;-78
2022/07/08 06:26:01;;;;;;;9.63;2.20;;;16.30;99.90;;;;;;4851151;29;20634;-78
2022/07/08 06:28:28;;;;;;;7.72;2.00;;;16.40;99.90;;;;;;4850316;29;20137;-78
2022/07/08 06:30:54;;;;;;;9.90;1.95;;;16.50;99.90;;;;;;4866236;29;20047;-78
2022/07/08 06:33:19;;;;;;;11.43;1.90;;;16.70;99.90;;;;;;4865755;29;20049;-77
2022/07/08 06:35:45;;;;;;;8.50;2.10;;;16.70;99.90;;;;;;4865999;29;20060;-78
2022/07/08 06:38:10;;;;;;;10.23;1.73;;;16.70;99.90;;;;;;4865691;29;20112;-78
2022/07/08 06:40:36;;;;;;;12.63;2.17;;;16.70;99.90;;;;;;4880830;29;20057;-78
2022/07/08 06:43:02;;;;;;;7.20;1.80;;;16.70;99.90;;;;;;4850326;29;20136;-78
2022/07/08 06:45:31;;;;;;;10.68;2.33;;;16.70;99.90;;;;;;4866230;29;20041;-78
2022/07/08 06:48:01;;;;;;;5.80;1.90;;;16.70;99.90;;;;;;4836546;29;20052;-77
2022/07/08 06:50:27;;;;;;;10.85;2.10;;;16.80;99.90;;;;;;4866682;29;20532;-78
2022/07/08 06:52:53;;;;;;;7.55;1.40;;;16.80;99.90;;;;;;4850355;29;20092;-78
2022/07/08 06:55:19;;;;;;;8.57;1.67;;;16.80;99.90;;;;;;4865766;29;20128;-78
2022/07/08 06:57:44;;;;;;;6.60;1.50;;;16.80;99.90;;;;;;4865038;29;20048;-77
2022/07/08 07:00:11;;;;;;;11.23;2.35;;;16.80;99.90;;;;;;4865490;29;20045;-78
2022/07/08 07:02:36;;;;;;;8.20;1.88;;;16.80;99.90;;;;;;4865188;29;20041;-78
2022/07/08 07:05:03;;;;;;;10.68;1.95;;;16.90;99.90;;;;;;4848944;29;20041;-78
2022/07/08 07:07:28;;;;;;;10.40;1.80;;;17.00;99.90;;;;;;4864166;29;20045;-78
2022/07/08 07:09:55;;;;;;;13.02;1.95;;;17.10;99.90;;;;;;4865207;29;20052;-78
2022/07/08 07:12:21;;;;;;;7.80;1.90;;;17.10;99.90;;;;;;4880177;29;20049;-77
2022/07/08 07:14:46;;;;;;;5.82;2.00;;;17.20;99.90;;;;;;4849426;29;20127;-77
2022/07/08 07:17:15;;;;;;;7.07;1.90;;;17.20;99.90;;;;;;4849294;29;20045;-78
2022/07/08 07:19:41;;;;;;;5.25;1.88;;;17.30;99.90;;;;;;4864223;29;20045;-77
2022/07/08 07:22:07;;;;;;;4.18;1.60;;;17.30;99.90;;;;;;4849233;29;20047;-78
2022/07/08 07:24:32;;;;;;;6.75;1.65;;;17.40;99.90;;;;;;4864754;29;20049;-78
2022/07/08 07:26:58;;;;;;;8.15;2.00;;;17.40;99.90;;;;;;4864843;29;20052;-77
2022/07/08 07:29:24;;;;;;;9.73;2.10;;;17.50;99.90;;;;;;4880360;29;20055;-78
2022/07/08 07:31:49;;;;;;;5.47;1.80;;;17.50;99.90;;;;;;4864112;29;20517;-78
2022/07/08 07:34:15;;;;;;;7.82;2.50;;;17.60;99.90;;;;;;4848825;29;20053;-78
2022/07/08 07:36:41;;;;;;;11.27;2.13;;;17.70;99.90;;;;;;4833717;29;20127;-78
2022/07/08 07:39:09;;;;;;;7.72;1.75;;;17.80;99.90;;;;;;4863889;29;20041;-78
2022/07/08 07:41:36;;;;;;;8.50;2.42;;;17.90;99.90;;;;;;4864056;29;20053;-78
2022/07/08 07:44:02;;;;;;;8.95;2.13;;;17.90;99.90;;;;;;4864527;29;20041;-78
2022/07/08 07:46:28;;;;;;;8.45;2.17;;;17.90;99.90;;;;;;4833316;29;20051;-78
2022/07/08 07:48:54;;;;;;;8.45;1.98;;;17.90;99.90;;;;;;4864115;29;20139;-78
2022/07/08 07:51:21;;;;;;;7.50;1.65;;;17.90;99.90;;;;;;4863633;29;20561;-78
2022/07/08 07:53:47;;;;;;;4.70;1.58;;;18.00;99.90;;;;;;4864067;29;20413;-78
2022/07/08 07:56:13;;;;;;;5.88;1.80;;;18.10;99.90;;;;;;4848112;29;20045;-78
2022/07/08 07:58:39;;;;;;;5.60;2.13;;;18.20;99.90;;;;;;4878873;29;20045;-78
2022/07/08 08:01:05;;;;;;;6.95;2.15;;;18.20;99.90;;;;;;4879157;29;20045;-78
2022/07/08 08:03:31;;;;;;;8.13;1.88;;;18.20;99.90;;;;;;4878765;29;20176;-78
2022/07/08 08:05:58;;;;;;;9.23;2.10;;;18.30;99.90;;;;;;4847952;29;20041;-78
2022/07/08 08:08:24;;;;;;;7.28;2.13;;;18.40;99.90;;;;;;4863764;29;20047;-78
2022/07/08 08:10:51;;;;;;;6.80;1.98;;;18.40;99.90;;;;;;4849672;29;20087;-78
2022/07/08 08:13:18;;;;;;;10.07;2.28;;;18.40;99.90;;;;;;4879507;29;20088;-78
2022/07/08 08:15:44;;;;;;;4.95;1.45;;;18.40;99.90;;;;;;4864062;29;20489;-78
2022/07/08 08:18:10;;;;;;;6.10;1.75;;;18.40;99.90;;;;;;4863129;29;20413;-78
2022/07/08 08:20:36;;;;;;;4.25;1.67;;;18.50;99.90;;;;;;4862989;29;20040;-79
2022/07/08 08:23:01;;;;;;;6.07;1.60;;;18.50;99.90;;;;;;4878181;29;20125;-78
2022/07/08 08:25:28;;;;;;;4.38;1.50;;;18.50;99.90;;;;;;4863430;29;20128;-78
2022/07/08 08:27:54;;;;;;;6.50;1.67;;;18.60;99.90;;;;;;4848626;29;20041;-78
2022/07/08 08:30:20;;;;;;;9.30;1.92;;;18.60;99.90;;;;;;4849211;29;20367;-78
2022/07/08 08:32:46;;;;;;;7.85;2.00;;;18.70;99.90;;;;;;4863040;29;20044;-78
2022/07/08 08:35:12;;;;;;;4.88;1.58;;;18.70;99.90;;;;;;4848260;29;20056;-78
2022/07/08 08:37:37;;;;;;;6.00;1.90;;;18.80;99.90;;;;;;4863421;29;20486;-87
2022/07/08 08:40:12;;;;;;;4.90;1.98;;;18.80;99.90;;;;;;4878865;29;20061;-86
2022/07/08 08:42:39;;;;;;;13.07;2.17;;;18.90;99.90;;;;;;4863400;29;20104;-86
2022/07/08 08:45:06;;;;;;;4.47;1.77;;;19.00;99.90;;;;;;4879331;29;20056;-86
2022/07/08 08:47:33;;;;;;;7.57;2.00;;;19.10;99.90;;;;;;4863754;29;20389;-86
2022/07/08 08:52:50;;;;;;;11.65;1.83;;;19.10;99.90;;;;;;4878802;29;20055;-86
2022/07/08 08:55:28;;;;;;;8.20;1.83;;;19.10;99.90;;;;;;4863064;29;20128;-87
2022/07/08 08:58:05;;;;;;;6.25;2.15;;;19.20;99.90;;;;;;4878678;29;20494;-86
2022/07/08 09:00:32;;;;;;;7.80;1.70;;;19.20;99.90;;;;;;4879134;29;20064;-86
2022/07/08 09:02:58;;;;;;;6.75;1.85;;;19.20;99.90;;;;;;4833250;29;20390;-87
2022/07/08 09:05:28;;;;;;;6.10;1.75;;;19.30;99.90;;;;;;4863609;29;20051;-86
2022/07/08 09:07:54;;;;;;;8.27;2.05;;;19.40;99.90;;;;;;4863041;29;20116;-86
2022/07/08 09:10:21;;;;;;;3.92;1.50;;;19.40;99.90;;;;;;4848567;29;20037;-87
2022/07/08 09:12:59;;;;;;;5.22;1.80;;;19.50;99.90;;;;;;4863533;29;20406;-86
2022/07/08 09:15:37;;;;;;;6.53;1.60;;;19.60;99.90;;;;;;4864445;29;20037;-86
2022/07/08 09:18:11;;;;;;;7.15;2.00;;;19.70;99.90;;;;;;4881989;29;20052;-86
2022/07/08 09:20:42;;;;;;;6.53;2.22;;;19.70;99.90;;;;;;4866492;29;20043;-86
2022/07/08 09:23:13;;;;;;;7.00;1.88;;;19.80;99.90;;;;;;4882174;29;20490;-86
2022/07/08 09:25:39;;;;;;;8.52;2.30;;;19.90;99.90;;;;;;4866703;29;20076;-86
2022/07/08 09:28:04;;;;;;;8.43;2.17;;;19.90;99.90;;;;;;4882562;29;20087;-85
2022/07/08 09:30:30;;;;;;;5.95;1.70;;;20.00;99.90;;;;;;4882324;29;20037;-86
2022/07/08 09:33:01;;;;;;;5.75;1.80;;;20.10;99.90;;;;;;4866556;29;20077;-87
2022/07/08 09:35:31;;;;;;;4.85;2.03;;;20.10;99.90;;;;;;4881846;29;20076;-85
2022/07/08 09:38:04;;;;;;;7.82;1.80;;;20.20;99.90;;;;;;4866818;29;20049;-85
2022/07/08 09:40:30;;;;;;;5.20;1.67;;;20.20;99.90;;;;;;4882391;29;20139;-87
2022/07/08 09:42:56;;;;;;;8.02;1.80;;;20.20;99.90;;;;;;4851529;29;20096;-86
2022/07/08 09:45:28;;;;;;;8.60;1.90;;;20.20;99.90;;;;;;4866453;29;20481;-86
2022/07/08 09:48:04;;;;;;;7.57;1.80;;;20.20;99.90;;;;;;4866827;29;20041;-86
2022/07/08 09:50:34;;;;;;;;;;;20.20;99.90;;;;;;4867025;29;20049;-86
2022/07/08 09:53:00;;;;;;;8.65;1.95;;;20.20;99.90;;;;;;4882218;29;19927;-85
2022/07/08 09:55:31;;;;;;;6.63;2.47;;;20.20;99.90;;;;;;4882180;29;20049;-86
2022/07/08 09:57:59;;;;;;;7.43;1.88;;;20.30;99.90;;;;;;4881618;29;20140;-86
2022/07/08 10:00:25;;;;;;;10.30;2.47;;;20.30;99.90;;;;;;4881960;29;20511;-86
2022/07/08 10:02:51;;;;;;;5.65;2.05;;;20.40;99.90;;;;;;4881849;29;20037;-86
2022/07/08 10:05:17;;;;;;;7.55;2.25;;;20.50;99.90;;;;;;4866240;29;20131;-86
2022/07/08 10:07:42;;;;;;;5.80;1.90;;;20.50;99.90;;;;;;4865995;29;20100;-86
2022/07/08 10:10:09;;;;;;;5.53;1.90;;;20.60;99.90;;;;;;4850248;29;20052;-85
2022/07/08 10:12:35;;;;;;;6.05;1.98;;;20.60;99.90;;;;;;4850799;29;20565;-86
2022/07/08 10:15:02;;;;;;;6.88;2.00;;;20.70;99.90;;;;;;4866169;29;20083;-86
2022/07/08 10:17:37;;;;;;;11.55;2.17;;;20.70;99.90;;;;;;4866013;29;20053;-86
2022/07/08 10:20:03;;;;;;;8.30;2.58;;;20.80;99.90;;;;;;4865943;29;20045;-86
2022/07/08 10:22:31;;;;;;;5.47;1.90;;;20.90;99.90;;;;;;4866541;29;20066;-86
2022/07/08 10:24:57;;;;;;;10.50;2.83;;;20.90;99.90;;;;;;4881888;29;20047;-86
2022/07/08 10:27:27;;;;;;;5.35;2.10;;;20.90;99.90;;;;;;4880448;29;20088;-86
2022/07/08 10:30:18;;;;;;;7.43;2.15;;;20.80;99.90;;;;;;4865913;29;20402;-85
2022/07/08 10:32:48;;;;;;;5.82;1.98;;;20.90;99.90;;;;;;4866895;29;20040;-86
2022/07/08 10:35:20;;;;;;;8.10;2.72;;;20.90;99.90;;;;;;4881484;29;20091;-86
2022/07/08 10:37:58;;;;;;;6.75;2.20;;;20.90;99.90;;;;;;4882354;29;20057;-86
2022/07/08 10:40:42;;;;;;;6.28;1.90;;;20.90;99.90;;;;;;4881247;29;20136;-86
2022/07/08 10:43:30;;;;;;;5.60;1.77;;;21.00;99.90;;;;;;4882637;29;20045;-86
2022/07/08 10:46:00;;;;;;;6.20;1.95;;;21.00;99.90;;;;;;4882336;29;20041;-86
2022/07/08 10:48:28;;;;;;;7.57;2.20;;;21.00;99.90;;;;;;4881253;29;20096;-86
2022/07/08 10:50:54;;;;;;;7.72;1.98;;;21.10;99.90;;;;;;4867535;29;20067;-86
2022/07/08 10:53:20;;;;;;;7.03;1.95;;;21.10;99.90;;;;;;4866485;29;20108;-86
2022/07/08 10:55:49;;;;;;;8.65;2.20;;;21.10;99.90;;;;;;4866580;29;20136;-85
2022/07/08 10:58:15;;;;;;;5.65;1.90;;;21.20;99.90;;;;;;4850813;29;20045;-86
2022/07/08 11:00:41;;;;;;;6.32;2.20;;;21.20;99.90;;;;;;4880838;29;20045;-86
2022/07/08 11:03:10;;;;;;;5.10;1.70;;;21.20;99.90;;;;;;4865524;29;20048;-86
2022/07/08 11:05:40;;;;;;;8.65;2.20;;;21.30;99.90;;;;;;4865243;29;20045;-85
2022/07/08 11:08:23;;;;;;;6.05;2.08;;;21.40;99.90;;;;;;4880745;29;20382;-86
2022/07/08 11:10:49;;;;;;;10.70;2.33;;;21.30;99.90;;;;;;4880692;29;20100;-85
2022/07/08 11:13:15;;;;;;;7.47;2.00;;;21.30;99.90;;;;;;4865084;29;20089;-86
2022/07/08 11:15:41;;;;;;;6.75;2.00;;;21.30;99.90;;;;;;4880896;29;20052;-86
2022/07/08 11:18:07;;;;;;;6.20;1.98;;;21.30;99.90;;;;;;4880349;29;20394;-86
2022/07/08 11:20:35;;;;;;;7.90;2.58;;;21.30;99.90;;;;;;4850802;29;20041;-85
2022/07/08 11:23:05;;;;;;;7.90;1.98;;;21.40;99.90;;;;;;4865559;29;20438;-86
2022/07/08 11:25:31;;;;;;;8.77;2.10;;;21.40;99.90;;;;;;4835203;29;20074;-86
2022/07/08 11:27:57;;;;;;;9.80;3.42;;;21.50;99.90;;;;;;4834784;29;20037;-88
2022/07/08 11:30:23;;;;;;;9.07;2.83;;;21.50;99.90;;;;;;4865806;29;20049;-86
2022/07/08 11:32:50;;;;;;;5.28;2.20;;;21.60;99.90;;;;;;4849367;29;20136;-86
2022/07/08 11:35:17;;;;;;;8.55;2.78;;;21.80;99.90;;;;;;4865779;29;20071;-86
2022/07/08 11:37:44;;;;;;;8.48;2.67;;;21.80;99.90;;;;;;4880879;29;20128;-86
2022/07/08 11:40:16;;;;;;;6.47;2.08;;;21.90;99.90;;;;;;4879892;29;20064;-85
2022/07/08 11:42:42;;;;;;;6.32;2.05;;;21.90;99.90;;;;;;4866205;29;20490;-86
2022/07/08 11:45:12;;;;;;;10.77;2.47;;;22.00;99.90;;;;;;4866685;29;20040;-85
2022/07/08 11:47:39;;;;;;;7.47;2.40;;;22.20;99.90;;;;;;4865964;29;20127;-86
2022/07/08 11:50:08;;;;;;;10.27;2.72;;;22.30;99.90;;;;;;4866184;29;20065;-85
2022/07/08 11:52:34;;;;;;;6.97;2.10;;;22.40;99.90;;;;;;4866867;29;20049;-86
2022/07/08 11:55:01;;;;;;;8.85;2.60;;;22.60;99.90;;;;;;4883563;29;20055;-85
2022/07/08 11:57:28;;;;;;;4.38;1.95;;;22.70;99.90;;;;;;4865270;29;20420;-86
2022/07/08 11:59:54;;;;;;;9.27;2.00;;;22.70;99.90;;;;;;4866358;29;20526;-86
2022/07/08 12:02:23;;;;;;;6.35;2.00;;;22.70;99.90;;;;;;4881688;29;20164;-86
2022/07/08 12:04:50;;;;;;;5.60;2.30;;;22.70;99.90;;;;;;4880592;29;20096;-86
2022/07/08 12:07:27;;;;;;;5.38;2.05;;;22.70;99.90;;;;;;4865537;29;20045;-85
2022/07/08 12:10:02;;;;;;;7.40;2.10;;;22.80;99.90;;;;;;4863869;29;20049;-85
2022/07/08 12:12:33;;;;;;;9.50;1.88;;;23.00;99.90;;;;;;4880962;29;20051;-86
2022/07/08 12:15:14;;;;;;;8.00;2.33;;;23.10;99.90;;;;;;4865329;29;20083;-86
2022/07/08 12:17:40;;;;;;;4.97;2.20;;;23.10;99.90;;;;;;4881962;29;20509;-86
2022/07/08 12:20:06;;;;;;;5.93;1.90;;;23.20;99.90;;;;;;4864071;29;20493;-86
2022/07/08 12:22:49;;;;;;;4.78;1.73;;;23.30;99.90;;;;;;4864282;29;20487;-85
2022/07/08 12:25:16;;;;;;;5.38;1.88;;;23.40;99.90;;;;;;4880173;29;20040;-86
2022/07/08 12:27:43;;;;;;;4.38;1.48;;;23.40;99.90;;;;;;4880984;29;20467;-86
2022/07/08 12:30:10;;;;;;;4.90;1.90;;;23.40;99.90;;;;;;4865299;29;20053;-85
2022/07/08 12:32:40;;;;;;;5.25;1.65;;;23.30;99.90;;;;;;4864265;29;20045;-85
2022/07/08 12:35:11;;;;;;;5.00;1.73;;;23.20;99.90;;;;;;4880348;29;20045;-85
2022/07/08 12:37:37;;;;;;;5.07;2.00;;;23.00;99.90;;;;;;4864949;29;20512;-85
2022/07/08 12:40:13;;;;;;;3.63;1.70;;;22.90;99.90;;;;;;4864623;29;20148;-85
2022/07/08 12:42:38;;;;;;;3.42;1.50;;;22.80;99.90;;;;;;4879246;29;20041;-86
2022/07/08 12:45:14;;;;;;;5.47;1.83;;;22.70;99.90;;;;;;4864581;29;20047;-86
2022/07/08 12:47:39;;;;;;;3.28;1.83;;;22.70;99.90;;;;;;4880035;29;20417;-86
2022/07/08 12:50:06;;;;;;;4.95;1.80;;;22.70;99.90;;;;;;4863806;29;20188;-86
2022/07/08 12:52:32;;;;;;;6.03;1.60;;;22.70;99.90;;;;;;4865256;29;20049;-86